Time;durP1;ratioP1;P1;durP2;ratioP2;P2;SDS_P1;SDS_P2;PMS_P1;PMS_P2;Temp;Humidity;BMP_temperature;BMP_pressure;BME280_temperature;BME280_humidity;BME280_pressure;Samples;Min_cycle;Max_cycle;Signal;HPM_P1;HPM_P2
2022/06/27 00:01:00;;;;;;;11.10;10.10;;;22.70;99.90;;;;;;2113472;28;20031;-68
2022/06/27 00:02:01;;;;;;;11.00;10.00;;;22.70;99.90;;;;;;2114123;28;20023;-67
2022/06/27 00:03:01;;;;;;;10.80;9.85;;;22.60;99.90;;;;;;2114163;28;20020;-67
2022/06/27 00:04:03;;;;;;;10.75;9.75;;;22.60;99.90;;;;;;2114222;28;20444;-67
2022/06/27 00:05:05;;;;;;;10.95;9.95;;;22.60;99.90;;;;;;2113574;28;20031;-67
2022/06/27 00:06:06;;;;;;;10.95;9.98;;;22.60;99.90;;;;;;2113548;28;20087;-68
2022/06/27 00:07:06;;;;;;;11.00;10.00;;;22.60;99.90;;;;;;2105391;28;20498;-67
2022/06/27 00:08:07;;;;;;;11.18;10.18;;;22.50;99.90;;;;;;2113625;28;20126;-67
2022/06/27 00:09:08;;;;;;;11.20;10.20;;;22.50;99.90;;;;;;2114122;28;20035;-67
2022/06/27 00:10:09;;;;;;;11.50;10.40;;;22.40;99.90;;;;;;2114542;28;20015;-67
2022/06/27 00:11:12;;;;;;;11.82;10.73;;;22.40;99.90;;;;;;2113551;28;20027;-68
2022/06/27 00:12:13;;;;;;;11.15;10.15;;;22.40;99.90;;;;;;2113883;28;20488;-67
2022/06/27 00:13:13;;;;;;;11.18;10.18;;;22.40;99.90;;;;;;2114485;28;20028;-68
2022/06/27 00:14:14;;;;;;;11.27;10.38;;;22.40;99.90;;;;;;2114868;28;20024;-66
2022/06/27 00:15:15;;;;;;;10.88;9.88;;;22.40;99.90;;;;;;2114813;28;20032;-69
2022/06/27 00:16:18;;;;;;;11.43;10.43;;;22.30;99.90;;;;;;2105680;28;20512;-68
2022/06/27 00:17:19;;;;;;;10.90;9.90;;;22.30;99.90;;;;;;2105979;28;20020;-67
2022/06/27 00:18:19;;;;;;;11.57;10.50;;;22.30;99.90;;;;;;2115841;28;20027;-66
2022/06/27 00:19:20;;;;;;;11.18;10.25;;;22.30;99.90;;;;;;2116714;28;20024;-67
2022/06/27 00:20:21;;;;;;;11.45;10.45;;;22.30;99.90;;;;;;2115908;28;20038;-66
2022/06/27 00:21:22;;;;;;;11.05;10.05;;;22.30;99.90;;;;;;2116111;28;20015;-68
2022/06/27 00:22:22;;;;;;;11.38;10.27;;;22.30;99.90;;;;;;2113493;28;20064;-67
2022/06/27 00:23:23;;;;;;;11.52;10.52;;;22.30;99.90;;;;;;2113432;28;20031;-69
2022/06/27 00:24:24;;;;;;;11.55;10.45;;;22.30;99.90;;;;;;2105059;28;20096;-69
2022/06/27 00:25:25;;;;;;;11.75;10.60;;;22.30;99.90;;;;;;2104738;28;20099;-67
2022/06/27 00:26:26;;;;;;;11.10;10.10;;;22.30;99.90;;;;;;2114093;28;20415;-66
2022/06/27 00:27:26;;;;;;;11.25;10.25;;;22.30;99.90;;;;;;2113448;28;20028;-65
2022/06/27 00:28:30;;;;;;;11.57;10.50;;;22.30;99.90;;;;;;2113035;28;20024;-67
2022/06/27 00:29:31;;;;;;;11.48;10.38;;;22.30;99.90;;;;;;2113772;28;20027;-66
2022/06/27 00:30:31;;;;;;;11.63;10.50;;;22.30;99.90;;;;;;2113830;28;20023;-67
2022/06/27 00:31:32;;;;;;;11.50;10.27;;;22.30;99.90;;;;;;2113824;28;20550;-67
2022/06/27 00:32:33;;;;;;;11.20;10.18;;;22.30;99.90;;;;;;2104865;28;20166;-68
2022/06/27 00:33:34;;;;;;;11.07;10.10;;;22.30;99.90;;;;;;2104685;28;20036;-68
2022/06/27 00:34:35;;;;;;;11.35;10.45;;;22.20;99.90;;;;;;2113272;28;20027;-67
2022/06/27 00:35:38;;;;;;;11.13;10.23;;;22.30;99.90;;;;;;2113752;28;20035;-68
2022/06/27 00:36:39;;;;;;;11.32;10.30;;;22.30;99.90;;;;;;2113213;28;20242;-67
2022/06/27 00:37:40;;;;;;;11.70;10.70;;;22.20;99.90;;;;;;2113249;28;20032;-68
2022/06/27 00:38:40;;;;;;;11.85;10.80;;;22.20;99.90;;;;;;2112778;28;20496;-68
2022/06/27 00:39:41;;;;;;;11.27;10.32;;;22.20;99.90;;;;;;2112969;28;20027;-66
2022/06/27 00:40:42;;;;;;;11.50;10.57;;;22.20;99.90;;;;;;2104750;28;20118;-67
2022/06/27 00:41:43;;;;;;;11.85;10.85;;;22.20;99.90;;;;;;2104948;28;20529;-66
2022/06/27 00:42:43;;;;;;;11.95;10.73;;;22.10;99.90;;;;;;2105181;28;20028;-67
2022/06/27 00:43:45;;;;;;;11.70;10.70;;;22.10;99.90;;;;;;2104504;28;20032;-66
2022/06/27 00:44:46;;;;;;;11.75;10.70;;;22.10;99.90;;;;;;2112969;28;20032;-66
2022/06/27 00:45:47;;;;;;;11.05;10.15;;;22.10;99.90;;;;;;2104723;28;20024;-65
2022/06/27 00:46:47;;;;;;;11.70;10.60;;;22.10;99.90;;;;;;2096509;28;20029;-67
2022/06/27 00:47:48;;;;;;;11.43;10.43;;;22.10;99.90;;;;;;2096269;28;20162;-69
2022/06/27 00:48:49;;;;;;;11.48;10.48;;;22.10;99.90;;;;;;2104363;28;20035;-67
2022/06/27 00:49:49;;;;;;;11.85;10.85;;;22.10;99.90;;;;;;2113096;28;20032;-68
2022/06/27 00:50:50;;;;;;;11.40;10.40;;;22.10;99.90;;;;;;2113025;28;20103;-68
2022/06/27 00:51:52;;;;;;;11.57;10.50;;;22.00;99.90;;;;;;2112962;28;20027;-67
2022/06/27 00:52:53;;;;;;;11.75;10.75;;;22.00;99.90;;;;;;2113033;28;20023;-67
2022/06/27 00:53:55;;;;;;;11.20;10.30;;;22.00;99.90;;;;;;2113683;27;20092;-67
2022/06/27 00:54:56;;;;;;;11.90;10.82;;;22.00;99.90;;;;;;2113006;28;20109;-67
2022/06/27 00:55:57;;;;;;;11.60;10.60;;;22.00;99.90;;;;;;2104478;28;20390;-67
2022/06/27 00:56:59;;;;;;;11.68;10.68;;;22.00;99.90;;;;;;2104568;28;20020;-68
2022/06/27 00:58:01;;;;;;;11.73;10.73;;;22.00;99.90;;;;;;2112964;28;20081;-68
2022/06/27 00:59:01;;;;;;;12.65;11.55;;;22.00;99.90;;;;;;2112738;28;20032;-67
2022/06/27 01:00:04;;;;;;;12.20;11.10;;;22.00;99.90;;;;;;2112786;28;20023;-67
2022/06/27 01:01:05;;;;;;;11.95;10.95;;;21.90;99.90;;;;;;2112797;28;20031;-69
2022/06/27 01:02:06;;;;;;;12.65;11.50;;;21.90;99.90;;;;;;2112445;28;20184;-69
2022/06/27 01:03:07;;;;;;;11.85;10.85;;;21.90;99.90;;;;;;2113146;28;20028;-68
2022/06/27 01:04:07;;;;;;;12.27;11.18;;;21.90;99.90;;;;;;2113627;28;20027;-69
2022/06/27 01:05:10;;;;;;;12.30;11.15;;;21.90;99.90;;;;;;2113052;28;20548;-68
2022/06/27 01:06:14;;;;;;;11.98;10.98;;;21.90;99.90;;;;;;2113008;28;20028;-69
2022/06/27 01:07:15;;;;;;;12.13;11.13;;;21.80;99.90;;;;;;2113855;28;20035;-69
2022/06/27 01:08:16;;;;;;;12.30;11.20;;;21.80;99.90;;;;;;2113263;27;20032;-69
2022/06/27 01:09:17;;;;;;;11.55;10.55;;;21.80;99.90;;;;;;2114166;28;20027;-68
2022/06/27 01:10:18;;;;;;;12.38;11.27;;;21.80;99.90;;;;;;2116278;28;20028;-67
2022/06/27 01:11:20;;;;;;;12.50;11.38;;;21.80;99.90;;;;;;2115411;28;20015;-67
2022/06/27 01:12:21;;;;;;;11.95;10.85;;;21.80;99.90;;;;;;2114250;28;20084;-67
2022/06/27 01:13:22;;;;;;;12.40;11.30;;;21.80;99.90;;;;;;2113575;28;20023;-67
2022/06/27 01:14:23;;;;;;;12.38;11.27;;;21.80;99.90;;;;;;2104975;28;20020;-68
2022/06/27 01:15:25;;;;;;;12.60;11.50;;;21.80;99.90;;;;;;2113372;28;20034;-67
2022/06/27 01:16:25;;;;;;;13.02;11.77;;;21.80;99.90;;;;;;2113409;28;20038;-68
2022/06/27 01:17:27;;;;;;;13.05;11.85;;;21.80;99.90;;;;;;2105012;28;20139;-68
2022/06/27 01:18:28;;;;;;;12.65;11.50;;;21.80;99.90;;;;;;2104299;28;20020;-68
2022/06/27 01:19:29;;;;;;;13.38;11.90;;;21.80;99.90;;;;;;2096021;28;20039;-69
2022/06/27 01:20:32;;;;;;;13.02;11.68;;;21.80;99.90;;;;;;2113020;28;20026;-69
2022/06/27 01:21:36;;;;;;;13.32;12.07;;;21.80;99.90;;;;;;2112812;28;20103;-68
2022/06/27 01:22:37;;;;;;;13.95;12.50;;;21.80;99.90;;;;;;2113246;28;20020;-68
2022/06/27 01:23:38;;;;;;;13.32;12.13;;;21.80;99.90;;;;;;2113856;28;20024;-69
2022/06/27 01:24:39;;;;;;;12.75;11.63;;;21.80;99.90;;;;;;2113901;27;20020;-69
2022/06/27 01:25:41;;;;;;;13.45;12.20;;;21.70;99.90;;;;;;2115044;28;20023;-68
2022/06/27 01:26:45;;;;;;;12.77;11.52;;;21.70;99.90;;;;;;2115344;28;20031;-67
2022/06/27 01:27:48;;;;;;;12.80;11.52;;;21.70;99.90;;;;;;2113972;28;20020;-67
2022/06/27 01:28:53;;;;;;;12.73;11.63;;;21.70;99.90;;;;;;2114046;28;20031;-67
2022/06/27 01:29:56;;;;;;;12.70;11.60;;;21.60;99.90;;;;;;2114207;28;20020;-67
2022/06/27 01:30:57;;;;;;;12.52;11.40;;;21.60;99.90;;;;;;2106526;28;20057;-67
2022/06/27 01:31:58;;;;;;;12.80;11.73;;;21.60;99.90;;;;;;2106173;28;20024;-68
2022/06/27 01:33:04;;;;;;;13.00;11.73;;;21.60;99.90;;;;;;2107067;28;20028;-68
2022/06/27 01:34:09;;;;;;;12.98;11.60;;;21.60;99.90;;;;;;2106972;28;20024;-67
2022/06/27 01:35:12;;;;;;;13.07;11.98;;;21.50;99.90;;;;;;2105666;28;20584;-70
2022/06/27 01:37:36;;;;;;;13.38;12.10;;;21.50;99.90;;;;;;2107764;28;20036;-69
2022/06/27 01:38:37;;;;;;;13.35;12.13;;;21.50;99.90;;;;;;2105145;28;20126;-68
2022/06/27 01:39:38;;;;;;;13.48;12.27;;;21.50;99.90;;;;;;2105462;28;20028;-67
2022/06/27 01:40:39;;;;;;;13.45;12.25;;;21.50;99.90;;;;;;2106562;28;20028;-67
2022/06/27 01:41:42;;;;;;;14.23;12.93;;;21.50;99.90;;;;;;2106505;28;20157;-68
2022/06/27 01:42:43;;;;;;;14.13;12.75;;;21.50;99.90;;;;;;2105875;28;20079;-69
2022/06/27 01:43:45;;;;;;;13.55;12.23;;;21.50;99.90;;;;;;2114211;28;20042;-69
2022/06/27 01:44:49;;;;;;;13.50;12.30;;;21.50;99.90;;;;;;2114717;28;20012;-69
2022/06/27 01:45:50;;;;;;;13.57;12.27;;;21.40;99.90;;;;;;2105819;28;20028;-68
2022/06/27 01:46:59;;;;;;;13.07;11.77;;;21.40;99.90;;;;;;2098040;28;20021;-68
2022/06/27 01:47:59;;;;;;;12.77;11.57;;;21.50;99.90;;;;;;2099267;28;20032;-69
2022/06/27 01:49:01;;;;;;;13.52;12.25;;;21.50;99.90;;;;;;2097609;28;20587;-68
2022/06/27 01:50:03;;;;;;;12.85;11.75;;;21.50;99.90;;;;;;2104412;28;20020;-68
2022/06/27 01:51:08;;;;;;;13.50;12.30;;;21.50;99.90;;;;;;2096820;28;20020;-68
2022/06/27 01:52:13;;;;;;;12.90;11.70;;;21.40;99.90;;;;;;2105335;28;20012;-68
2022/06/27 01:53:20;;;;;;;13.48;12.27;;;21.40;99.90;;;;;;2104588;28;20040;-68
2022/06/27 01:54:22;;;;;;;13.57;12.38;;;21.40;99.90;;;;;;2105406;28;20466;-68
2022/06/27 01:55:24;;;;;;;13.77;12.55;;;21.40;99.90;;;;;;2113066;28;20012;-68
2022/06/27 01:58:47;;;;;;;;;;;21.40;99.90;;;;;;2113847;28;20485;-69
2022/06/27 01:59:50;;;;;;;13.57;12.38;;;21.40;99.90;;;;;;2112820;28;19953;-67
2022/06/27 02:00:51;;;;;;;13.82;12.70;;;21.30;99.90;;;;;;2104756;28;20486;-67
2022/06/27 02:01:51;;;;;;;13.60;12.40;;;21.30;99.90;;;;;;2112806;28;20117;-69
2022/06/27 02:02:52;;;;;;;13.45;12.20;;;21.30;99.90;;;;;;2113054;28;20135;-68
2022/06/27 02:03:55;;;;;;;14.20;12.90;;;21.30;99.90;;;;;;2104306;28;20143;-68
2022/06/27 02:04:55;;;;;;;14.10;12.75;;;21.20;99.90;;;;;;2112850;28;20020;-68
2022/06/27 02:05:57;;;;;;;14.38;13.00;;;21.20;99.90;;;;;;2112496;28;20126;-67
2022/06/27 02:07:02;;;;;;;14.50;13.20;;;21.20;99.90;;;;;;2112287;28;20011;-68
2022/06/27 02:08:04;;;;;;;13.80;12.55;;;21.20;99.90;;;;;;2104621;28;20115;-68
2022/06/27 02:09:08;;;;;;;14.00;12.73;;;21.10;99.90;;;;;;2104333;28;20785;-68
2022/06/27 02:10:12;;;;;;;14.80;13.50;;;21.10;99.90;;;;;;2104474;28;20019;-69
2022/06/27 02:11:14;;;;;;;14.68;13.27;;;21.10;99.90;;;;;;2104514;28;20181;-67
2022/06/27 02:12:18;;;;;;;13.60;12.50;;;21.00;99.90;;;;;;2112618;28;20016;-67
2022/06/27 02:13:19;;;;;;;13.75;12.50;;;21.00;99.90;;;;;;2112529;28;20406;-69
2022/06/27 02:14:24;;;;;;;14.15;12.85;;;21.00;99.90;;;;;;2112402;28;20032;-68
2022/06/27 02:15:25;;;;;;;14.07;12.88;;;21.00;99.90;;;;;;2104035;28;20020;-67
2022/06/27 02:16:26;;;;;;;14.05;12.82;;;20.90;99.90;;;;;;2103712;28;20127;-68
2022/06/27 02:17:27;;;;;;;14.07;12.88;;;20.90;99.90;;;;;;2104207;28;20028;-67
2022/06/27 02:18:28;;;;;;;13.68;12.50;;;20.90;99.90;;;;;;2103476;28;20433;-67
2022/06/27 02:19:29;;;;;;;13.98;12.77;;;20.90;99.90;;;;;;2104109;28;20077;-67
2022/06/27 02:20:29;;;;;;;14.70;13.20;;;20.90;99.90;;;;;;2104188;28;20517;-67
2022/06/27 02:21:30;;;;;;;14.18;12.77;;;20.90;99.90;;;;;;2104188;28;20036;-67
2022/06/27 02:22:31;;;;;;;14.13;12.80;;;20.90;99.90;;;;;;2104338;28;20032;-68
2022/06/27 02:23:32;;;;;;;14.32;13.02;;;20.80;99.90;;;;;;2112484;28;20446;-68
2022/06/27 02:24:33;;;;;;;14.68;13.27;;;20.80;99.90;;;;;;2112529;28;20032;-68
2022/06/27 02:25:33;;;;;;;14.45;13.15;;;20.80;99.90;;;;;;2112441;28;20386;-68
2022/06/27 02:26:35;;;;;;;14.23;12.80;;;20.80;99.90;;;;;;2112233;28;20023;-67
2022/06/27 02:27:36;;;;;;;14.35;12.90;;;20.80;99.90;;;;;;2112444;28;20098;-68
2022/06/27 02:28:38;;;;;;;14.82;13.35;;;20.80;99.90;;;;;;2112930;28;20028;-68
2022/06/27 02:29:39;;;;;;;14.68;13.25;;;20.70;99.90;;;;;;2113088;28;20094;-66
2022/06/27 02:30:40;;;;;;;14.40;13.10;;;20.70;99.90;;;;;;2113119;28;20513;-67
2022/06/27 02:31:49;;;;;;;14.10;12.77;;;20.70;99.90;;;;;;2112287;28;20031;-67
2022/06/27 02:32:50;;;;;;;15.02;13.63;;;20.70;99.90;;;;;;2112336;28;20055;-67
2022/06/27 02:33:53;;;;;;;14.63;13.23;;;20.70;99.90;;;;;;2113015;28;20020;-67
2022/06/27 02:34:56;;;;;;;14.75;13.43;;;20.70;99.90;;;;;;2112265;28;20112;-67
2022/06/27 02:35:57;;;;;;;14.68;13.30;;;20.70;99.90;;;;;;2112241;28;20028;-67
2022/06/27 02:37:03;;;;;;;14.32;13.02;;;20.70;99.90;;;;;;2103681;28;20024;-67
2022/06/27 02:38:09;;;;;;;14.60;13.30;;;20.60;99.90;;;;;;2097074;28;20119;-67
2022/06/27 02:39:14;;;;;;;14.45;13.15;;;20.60;99.90;;;;;;2104091;28;20406;-67
2022/06/27 02:40:16;;;;;;;14.98;13.68;;;20.60;99.90;;;;;;2103769;28;20472;-67
2022/06/27 02:41:20;;;;;;;14.30;13.00;;;20.60;99.90;;;;;;2095906;28;20032;-67
2022/06/27 02:42:22;;;;;;;14.45;13.15;;;20.60;99.90;;;;;;2103890;28;20480;-67
2022/06/27 02:43:29;;;;;;;15.13;13.75;;;20.60;99.90;;;;;;2095579;28;20036;-67
2022/06/27 02:44:30;;;;;;;14.85;13.55;;;20.60;99.90;;;;;;2088429;28;20032;-67
2022/06/27 02:45:36;;;;;;;14.32;13.02;;;20.60;99.90;;;;;;2103885;28;20051;-67
2022/06/27 02:46:38;;;;;;;14.65;13.38;;;20.60;99.90;;;;;;2104314;28;20028;-67
2022/06/27 02:47:42;;;;;;;15.00;13.63;;;20.60;99.90;;;;;;2103609;28;20648;-67
2022/06/27 02:48:47;;;;;;;13.85;12.55;;;20.60;99.90;;;;;;2103943;28;20031;-67
2022/06/27 02:49:49;;;;;;;14.13;12.93;;;20.60;99.90;;;;;;2111677;28;20020;-67
2022/06/27 02:51:01;;;;;;;14.20;12.90;;;20.60;99.90;;;;;;2104562;28;20110;-67
2022/06/27 02:52:11;;;;;;;14.93;13.40;;;20.50;99.90;;;;;;2111985;28;20114;-67
2022/06/27 02:53:31;;;;;;;14.63;13.30;;;20.50;99.90;;;;;;2103825;28;20065;-67
2022/06/27 02:54:59;;;;;;;15.18;13.68;;;20.60;99.90;;;;;;2107022;28;20055;-67
2022/06/27 02:56:04;;;;;;;14.18;12.98;;;20.60;99.90;;;;;;2103669;28;21030;-67
2022/06/27 02:57:16;;;;;;;15.52;14.07;;;20.60;99.90;;;;;;2103805;28;20429;-68
2022/06/27 02:58:21;;;;;;;14.63;13.30;;;20.60;99.90;;;;;;2102029;28;20089;-68
2022/06/27 02:59:32;;;;;;;15.85;14.35;;;20.60;99.90;;;;;;2095864;28;20067;-67
2022/06/27 03:00:35;;;;;;;15.43;13.82;;;20.60;99.90;;;;;;2096850;28;20050;-67
2022/06/27 03:01:40;;;;;;;15.68;14.07;;;20.60;99.90;;;;;;2103912;28;20028;-67
2022/06/27 03:02:42;;;;;;;15.55;14.13;;;20.50;99.90;;;;;;2103911;28;20074;-67
2022/06/27 03:03:59;;;;;;;16.13;14.73;;;20.50;99.90;;;;;;2104000;28;20071;-67
2022/06/27 03:05:02;;;;;;;16.30;14.65;;;20.50;99.90;;;;;;2112055;28;20020;-67
2022/06/27 03:06:10;;;;;;;15.48;13.95;;;20.50;99.90;;;;;;2103172;28;20035;-67
2022/06/27 03:07:11;;;;;;;15.88;14.43;;;20.50;99.90;;;;;;2087664;28;20056;-68
2022/06/27 03:08:12;;;;;;;15.95;14.45;;;20.50;99.90;;;;;;2086804;28;20525;-68
2022/06/27 03:09:13;;;;;;;16.00;14.50;;;20.50;99.90;;;;;;2103670;28;20131;-68
2022/06/27 03:10:16;;;;;;;16.50;14.88;;;20.40;99.90;;;;;;2103551;28;20032;-68
2022/06/27 03:11:21;;;;;;;16.17;14.68;;;20.40;99.90;;;;;;2104069;28;20107;-68
2022/06/27 03:12:22;;;;;;;16.02;14.45;;;20.40;99.90;;;;;;2103617;28;20036;-68
2022/06/27 03:13:25;;;;;;;16.83;15.23;;;20.40;99.90;;;;;;2103946;28;20020;-68
2022/06/27 03:14:31;;;;;;;16.90;15.30;;;20.40;99.90;;;;;;2111536;28;20031;-67
2022/06/27 03:15:32;;;;;;;17.10;15.40;;;20.40;99.90;;;;;;2095146;28;20090;-67
2022/06/27 03:16:34;;;;;;;16.52;14.93;;;20.40;99.90;;;;;;2103487;28;20453;-67
2022/06/27 03:17:36;;;;;;;16.45;14.52;;;20.40;99.90;;;;;;2103686;28;20497;-67
2022/06/27 03:19:06;;;;;;;16.35;14.85;;;20.40;99.90;;;;;;2082054;28;20076;-68
2022/06/27 03:20:17;;;;;;;16.60;15.00;;;20.40;99.90;;;;;;2070884;28;20114;-67
2022/06/27 03:21:29;;;;;;;16.65;15.05;;;20.40;99.90;;;;;;2091715;28;20031;-67
2022/06/27 03:22:37;;;;;;;15.65;14.15;;;20.40;99.90;;;;;;2103804;28;20024;-67
2022/06/27 03:23:40;;;;;;;16.25;14.70;;;20.40;99.90;;;;;;2103745;28;20740;-67
2022/06/27 03:24:42;;;;;;;16.85;15.23;;;20.40;99.90;;;;;;2095746;28;20025;-67
2022/06/27 03:25:44;;;;;;;17.10;15.40;;;20.40;99.90;;;;;;2095308;28;20029;-67
2022/06/27 03:26:45;;;;;;;16.13;14.50;;;20.40;99.90;;;;;;2103652;28;20024;-67
2022/06/27 03:27:49;;;;;;;16.23;14.60;;;20.40;99.90;;;;;;2103644;28;20069;-67
2022/06/27 03:28:49;;;;;;;15.35;13.95;;;20.50;99.90;;;;;;2095053;28;20119;-67
2022/06/27 03:29:50;;;;;;;15.95;14.43;;;20.50;99.90;;;;;;2095205;28;20024;-66
2022/06/27 03:30:53;;;;;;;15.88;14.27;;;20.50;99.90;;;;;;2103940;28;20089;-67
2022/06/27 03:31:54;;;;;;;15.68;14.23;;;20.50;99.90;;;;;;2111840;28;20619;-66
2022/06/27 03:32:55;;;;;;;15.43;13.98;;;20.60;99.90;;;;;;2095396;28;20136;-67
2022/06/27 03:33:58;;;;;;;15.70;14.20;;;20.60;99.90;;;;;;2103648;28;20020;-67
2022/06/27 03:35:08;;;;;;;16.02;14.35;;;20.60;99.90;;;;;;2104029;28;20043;-67
2022/06/27 03:36:09;;;;;;;14.90;13.45;;;20.70;99.90;;;;;;2103676;28;20040;-66
2022/06/27 03:37:10;;;;;;;15.38;13.98;;;20.70;99.90;;;;;;2095078;28;20044;-67
2022/06/27 03:38:12;;;;;;;15.07;13.68;;;20.70;99.90;;;;;;2095442;28;20028;-68
2022/06/27 03:39:14;;;;;;;14.85;13.35;;;20.80;99.90;;;;;;2095519;28;20059;-65
2022/06/27 03:40:14;;;;;;;14.70;13.40;;;20.80;99.90;;;;;;2103302;28;20691;-66
2022/06/27 03:41:21;;;;;;;14.68;13.27;;;20.80;99.90;;;;;;2096062;28;20494;-67
2022/06/27 03:42:22;;;;;;;13.95;12.68;;;20.90;99.90;;;;;;2095374;28;20166;-66
2022/06/27 03:43:24;;;;;;;13.90;12.65;;;20.90;99.90;;;;;;2103747;28;20035;-66
2022/06/27 03:44:25;;;;;;;14.30;13.10;;;21.00;99.90;;;;;;2103522;28;20062;-66
2022/06/27 03:45:27;;;;;;;13.85;12.43;;;21.00;99.90;;;;;;2095398;28;20032;-66
2022/06/27 03:46:28;;;;;;;14.38;13.07;;;21.10;99.90;;;;;;2094775;28;20035;-66
2022/06/27 03:47:30;;;;;;;15.05;13.45;;;21.10;99.90;;;;;;2095459;28;20112;-65
2022/06/27 03:50:37;;;;;;;14.65;13.32;;;21.20;99.90;;;;;;2104241;28;20036;-65
2022/06/27 03:51:38;;;;;;;14.57;13.27;;;21.30;99.90;;;;;;2103526;28;20031;-65
2022/06/27 03:52:40;;;;;;;14.15;12.73;;;21.30;99.90;;;;;;2095165;28;20624;-66
2022/06/27 03:53:41;;;;;;;14.00;12.70;;;21.40;99.90;;;;;;2087140;28;20033;-65
2022/06/27 03:54:42;;;;;;;13.73;12.52;;;21.40;99.90;;;;;;2095225;28;20032;-65
2022/06/27 03:55:42;;;;;;;13.95;12.55;;;21.50;99.90;;;;;;2103390;28;20032;-66
2022/06/27 03:56:43;;;;;;;13.52;12.32;;;21.60;99.90;;;;;;2095115;28;20801;-66
2022/06/27 03:57:50;;;;;;;14.98;13.50;;;21.60;99.90;;;;;;2103443;28;20035;-66
2022/06/27 03:58:51;;;;;;;13.80;12.32;;;21.60;99.90;;;;;;2103512;28;20041;-66
2022/06/27 03:59:53;;;;;;;13.38;12.18;;;21.70;99.90;;;;;;2095350;28;20111;-66
2022/06/27 04:00:54;;;;;;;13.18;12.07;;;21.70;99.90;;;;;;2104071;28;20528;-69
2022/06/27 04:01:55;;;;;;;13.43;12.23;;;21.80;99.90;;;;;;2095269;28;20033;-67
2022/06/27 04:02:59;;;;;;;13.60;12.32;;;21.90;99.90;;;;;;2087768;28;20036;-66
2022/06/27 04:04:32;;;;;;;14.20;12.68;;;21.90;99.90;;;;;;2088428;28;20480;-68
2022/06/27 04:05:33;;;;;;;13.27;12.05;;;22.10;99.90;;;;;;2103726;28;20654;-65
2022/06/27 04:06:34;;;;;;;12.88;11.63;;;22.30;99.90;;;;;;2103190;28;20051;-66
2022/06/27 04:07:38;;;;;;;11.90;10.90;;;22.70;99.90;;;;;;2095615;28;20059;-67
2022/06/27 04:08:40;;;;;;;12.40;11.30;;;23.20;99.90;;;;;;2095523;28;20442;-67
2022/06/27 04:09:41;;;;;;;12.40;11.30;;;23.60;99.90;;;;;;2087286;28;20124;-66
2022/06/27 04:10:45;;;;;;;12.10;10.90;;;24.00;99.90;;;;;;2087439;28;20060;-66
2022/06/27 04:11:49;;;;;;;11.35;10.35;;;24.40;99.90;;;;;;2087852;28;20032;-67
2022/06/27 04:13:09;;;;;;;12.07;10.20;;;24.80;99.90;;;;;;2098771;28;20590;-67
2022/06/27 04:14:10;;;;;;;11.30;10.30;;;25.40;99.90;;;;;;2104446;28;20082;-67
2022/06/27 04:15:29;;;;;;;10.88;9.85;;;25.80;99.90;;;;;;2104711;28;20028;-67
2022/06/27 04:16:48;;;;;;;11.20;10.20;;;26.30;99.90;;;;;;2104255;28;20623;-67
2022/06/27 04:18:08;;;;;;;10.95;10.05;;;26.70;99.90;;;;;;2103842;28;20040;-65
2022/06/27 04:19:27;;;;;;;10.88;9.73;;;26.90;99.90;;;;;;2105163;28;20103;-66
2022/06/27 04:20:31;;;;;;;11.30;10.18;;;27.00;99.90;;;;;;2106201;28;20040;-65
2022/06/27 04:21:36;;;;;;;10.90;9.85;;;27.10;99.90;;;;;;2105348;28;20541;-66
2022/06/27 04:22:47;;;;;;;12.15;9.73;;;27.20;99.90;;;;;;2098711;28;20036;-67
2022/06/27 04:24:06;;;;;;;10.65;9.65;;;27.40;99.40;;;;;;2105790;28;20032;-66
2022/06/27 04:25:11;;;;;;;10.93;9.93;;;27.60;98.10;;;;;;2105610;28;20059;-66
2022/06/27 04:26:16;;;;;;;10.07;9.27;;;27.90;97.10;;;;;;2105443;28;20036;-65
2022/06/27 04:27:19;;;;;;;10.77;9.50;;;28.10;96.00;;;;;;2106797;28;20028;-66
2022/06/27 04:28:20;;;;;;;10.18;9.23;;;28.30;94.90;;;;;;2105530;28;20440;-66
2022/06/27 04:29:21;;;;;;;10.18;9.38;;;28.40;93.90;;;;;;2105631;28;20026;-65
2022/06/27 04:30:23;;;;;;;9.73;8.85;;;28.50;93.00;;;;;;2097186;28;20027;-67
2022/06/27 04:31:24;;;;;;;9.98;9.05;;;28.60;92.50;;;;;;2097163;28;20029;-66
2022/06/27 04:32:25;;;;;;;9.77;8.95;;;28.80;91.90;;;;;;2105297;28;20031;-67
2022/06/27 04:33:26;;;;;;;9.68;8.80;;;29.00;91.10;;;;;;2096850;28;20044;-68
2022/06/27 04:34:27;;;;;;;9.75;8.75;;;29.20;90.20;;;;;;2096802;28;20021;-67
2022/06/27 04:35:28;;;;;;;10.07;8.65;;;29.30;89.00;;;;;;2105464;28;20024;-66
2022/06/27 04:36:29;;;;;;;10.38;8.65;;;29.50;87.50;;;;;;2105667;28;20105;-67
2022/06/27 04:37:30;;;;;;;9.93;8.93;;;29.60;86.30;;;;;;2105510;28;20032;-67
2022/06/27 04:38:55;;;;;;;9.95;8.93;;;29.70;84.80;;;;;;2079594;28;20061;-67
2022/06/27 04:40:14;;;;;;;9.43;8.25;;;30.00;82.70;;;;;;2114185;28;20658;-66
2022/06/27 04:41:16;;;;;;;10.05;9.05;;;30.10;81.40;;;;;;2113515;28;20031;-67
2022/06/27 04:42:22;;;;;;;9.85;8.85;;;30.10;80.70;;;;;;2105426;28;20028;-66
2022/06/27 04:43:26;;;;;;;10.13;8.85;;;30.10;80.30;;;;;;2105295;28;20910;-66
2022/06/27 04:44:27;;;;;;;9.75;8.85;;;30.10;79.30;;;;;;2105194;28;20071;-68
2022/06/27 04:45:28;;;;;;;9.43;8.57;;;29.90;78.90;;;;;;2113451;28;20045;-68
2022/06/27 04:46:36;;;;;;;11.23;9.23;;;29.80;79.40;;;;;;2105731;28;20044;-66
2022/06/27 04:47:49;;;;;;;9.88;8.93;;;29.80;80.00;;;;;;2113564;28;20118;-67
2022/06/27 04:48:56;;;;;;;9.88;9.07;;;29.50;79.50;;;;;;2113518;28;20099;-66
2022/06/27 04:49:58;;;;;;;9.10;8.30;;;29.50;79.50;;;;;;2104984;28;20024;-66
2022/06/27 04:50:59;;;;;;;9.57;8.48;;;29.50;79.70;;;;;;2096949;28;20032;-66
2022/06/27 04:52:00;;;;;;;9.15;8.23;;;29.60;79.30;;;;;;2113351;28;20019;-66
2022/06/27 04:53:01;;;;;;;14.15;8.30;;;29.70;78.80;;;;;;2104922;28;20028;-66
2022/06/27 04:54:02;;;;;;;9.68;8.45;;;29.80;78.10;;;;;;2096427;28;20585;-67
2022/06/27 04:55:07;;;;;;;9.60;8.70;;;29.70;77.40;;;;;;2096393;28;20023;-67
2022/06/27 04:56:09;;;;;;;9.45;8.60;;;29.70;77.30;;;;;;2105436;28;20597;-68
2022/06/27 04:57:13;;;;;;;9.70;8.70;;;29.30;77.70;;;;;;2105107;28;20539;-67
2022/06/27 04:58:15;;;;;;;9.05;8.15;;;29.20;78.10;;;;;;2105097;28;20736;-69
2022/06/27 04:59:16;;;;;;;9.50;8.52;;;29.10;78.80;;;;;;2104866;28;20036;-67
2022/06/27 05:00:20;;;;;;;9.27;8.48;;;28.90;79.80;;;;;;2105174;28;20062;-67
2022/06/27 05:01:50;;;;;;;9.48;8.48;;;28.80;79.60;;;;;;2087723;28;20458;-68
2022/06/27 05:02:52;;;;;;;10.93;8.38;;;28.90;79.80;;;;;;2091690;28;20046;-68
2022/06/27 05:03:53;;;;;;;11.20;8.80;;;28.90;79.60;;;;;;2103406;28;20516;-69
2022/06/27 05:05:03;;;;;;;10.57;8.60;;;28.80;79.80;;;;;;2097411;28;20047;-67
2022/06/27 05:06:04;;;;;;;11.27;8.43;;;28.80;79.80;;;;;;2097533;28;20040;-67
2022/06/27 05:07:05;;;;;;;8.93;8.13;;;29.00;79.60;;;;;;2096281;28;20088;-66
2022/06/27 05:08:06;;;;;;;10.98;8.80;;;29.20;78.80;;;;;;2096444;28;20031;-67
2022/06/27 05:09:10;;;;;;;9.15;8.25;;;29.10;78.60;;;;;;2105275;28;20028;-67
2022/06/27 05:10:11;;;;;;;9.10;8.30;;;29.10;78.60;;;;;;2096405;28;20434;-66
2022/06/27 05:11:12;;;;;;;8.70;7.90;;;29.30;78.00;;;;;;2096651;28;20028;-65
2022/06/27 05:12:13;;;;;;;9.05;8.02;;;29.40;77.70;;;;;;2105176;28;20497;-66
2022/06/27 05:13:13;;;;;;;9.30;8.32;;;29.50;77.10;;;;;;2113090;28;20031;-66
2022/06/27 05:14:18;;;;;;;8.98;8.18;;;29.50;76.50;;;;;;2104974;28;20037;-68
2022/06/27 05:15:24;;;;;;;9.15;7.80;;;29.50;76.40;;;;;;2097748;28;20162;-68
2022/06/27 05:16:25;;;;;;;18.00;7.75;;;29.50;76.10;;;;;;2096844;28;20444;-68
2022/06/27 05:17:27;;;;;;;8.88;7.90;;;29.60;76.10;;;;;;2096494;28;20034;-67
2022/06/27 05:18:28;;;;;;;8.45;7.55;;;29.60;75.70;;;;;;2104497;28;20047;-67
2022/06/27 05:19:28;;;;;;;8.50;7.80;;;29.70;75.60;;;;;;2113221;28;20768;-67
2022/06/27 05:20:30;;;;;;;8.98;8.07;;;29.50;75.80;;;;;;2104705;28;20030;-67
2022/06/27 05:21:31;;;;;;;8.57;7.88;;;29.40;75.90;;;;;;2096340;28;20067;-67
2022/06/27 05:22:32;;;;;;;8.70;7.88;;;29.50;76.30;;;;;;2096170;28;20036;-67
2022/06/27 05:23:33;;;;;;;8.07;7.30;;;29.50;76.10;;;;;;2104860;28;20028;-67
2022/06/27 05:24:34;;;;;;;8.40;7.55;;;29.40;76.00;;;;;;2096234;28;20109;-68
2022/06/27 05:25:35;;;;;;;8.73;7.82;;;29.50;75.80;;;;;;2096226;28;20083;-68
2022/06/27 05:26:37;;;;;;;8.80;8.00;;;29.60;75.50;;;;;;2104164;28;20034;-68
2022/06/27 05:27:38;;;;;;;9.40;8.23;;;29.60;75.40;;;;;;2104668;28;20027;-67
2022/06/27 05:28:38;;;;;;;8.10;7.40;;;29.60;75.30;;;;;;2113029;28;20404;-67